sensor_id;sensor_type;location;lat;lon;timestamp;P1;durP1;ratioP1;P2;durP2;ratioP2
51602;SDS011;37954;51.980;5.850;2023-02-12T00:02:43;16.00;;;9.70;;
51602;SDS011;37954;51.980;5.850;2023-02-12T00:06:55;12.80;;;8.77;;
51602;SDS011;37954;51.980;5.850;2023-02-12T00:11:07;11.40;;;8.17;;
51602;SDS011;37954;51.980;5.850;2023-02-12T00:15:20;12.83;;;8.80;;
51602;SDS011;37954;51.980;5.850;2023-02-12T00:19:31;12.23;;;8.37;;
51602;SDS011;37954;51.980;5.850;2023-02-12T00:23:43;15.60;;;9.00;;
51602;SDS011;37954;51.980;5.850;2023-02-12T00:27:55;12.67;;;8.73;;
51602;SDS011;37954;51.980;5.850;2023-02-12T00:32:09;12.13;;;8.87;;
51602;SDS011;37954;51.980;5.850;2023-02-12T00:36:22;15.33;;;8.70;;
51602;SDS011;37954;51.980;5.850;2023-02-12T00:40:37;14.80;;;8.97;;
51602;SDS011;37954;51.980;5.850;2023-02-12T00:44:48;17.87;;;9.87;;
51602;SDS011;37954;51.980;5.850;2023-02-12T00:49:00;16.13;;;10.30;;
51602;SDS011;37954;51.980;5.850;2023-02-12T00:53:12;15.70;;;11.33;;
51602;SDS011;37954;51.980;5.850;2023-02-12T00:57:23;14.67;;;10.73;;
51602;SDS011;37954;51.980;5.850;2023-02-12T01:01:35;16.47;;;10.13;;
51602;SDS011;37954;51.980;5.850;2023-02-12T01:05:47;16.43;;;10.00;;
51602;SDS011;37954;51.980;5.850;2023-02-12T01:09:59;18.83;;;10.90;;
51602;SDS011;37954;51.980;5.850;2023-02-12T01:14:12;14.23;;;9.93;;
51602;SDS011;37954;51.980;5.850;2023-02-12T01:18:24;16.67;;;9.97;;
51602;SDS011;37954;51.980;5.850;2023-02-12T01:22:36;18.67;;;10.37;;
51602;SDS011;37954;51.980;5.850;2023-02-12T01:26:48;16.10;;;10.47;;
51602;SDS011;37954;51.980;5.850;2023-02-12T01:31:00;14.70;;;10.13;;
51602;SDS011;37954;51.980;5.850;2023-02-12T01:35:12;15.73;;;11.13;;
51602;SDS011;37954;51.980;5.850;2023-02-12T01:39:24;15.23;;;10.53;;
51602;SDS011;37954;51.980;5.850;2023-02-12T01:43:36;18.67;;;11.50;;
51602;SDS011;37954;51.980;5.850;2023-02-12T01:47:48;15.93;;;11.73;;
51602;SDS011;37954;51.980;5.850;2023-02-12T01:52:02;17.27;;;11.23;;
51602;SDS011;37954;51.980;5.850;2023-02-12T01:56:17;15.87;;;10.13;;
51602;SDS011;37954;51.980;5.850;2023-02-12T02:00:29;16.50;;;10.47;;
51602;SDS011;37954;51.980;5.850;2023-02-12T02:04:45;16.30;;;10.37;;
51602;SDS011;37954;51.980;5.850;2023-02-12T02:09:00;17.17;;;10.47;;
51602;SDS011;37954;51.980;5.850;2023-02-12T02:13:15;15.33;;;10.07;;
51602;SDS011;37954;51.980;5.850;2023-02-12T02:22:01;17.37;;;11.17;;
51602;SDS011;37954;51.980;5.850;2023-02-12T02:35:48;17.60;;;11.33;;
51602;SDS011;37954;51.980;5.850;2023-02-12T02:40:24;15.43;;;10.80;;
51602;SDS011;37954;51.980;5.850;2023-02-12T02:49:18;18.03;;;11.87;;
51602;SDS011;37954;51.980;5.850;2023-02-12T02:53:38;17.83;;;11.07;;
51602;SDS011;37954;51.980;5.850;2023-02-12T02:57:58;16.47;;;10.60;;
51602;SDS011;37954;51.980;5.850;2023-02-12T03:02:17;16.40;;;10.13;;
51602;SDS011;37954;51.980;5.850;2023-02-12T03:06:50;13.87;;;10.07;;
51602;SDS011;37954;51.980;5.850;2023-02-12T03:11:09;14.63;;;10.37;;
51602;SDS011;37954;51.980;5.850;2023-02-12T03:15:28;16.03;;;10.27;;
51602;SDS011;37954;51.980;5.850;2023-02-12T03:19:45;17.80;;;11.10;;
51602;SDS011;37954;51.980;5.850;2023-02-12T03:28:33;15.53;;;9.73;;
51602;SDS011;37954;51.980;5.850;2023-02-12T03:32:51;15.67;;;10.47;;
51602;SDS011;37954;51.980;5.850;2023-02-12T03:37:11;14.30;;;10.43;;
51602;SDS011;37954;51.980;5.850;2023-02-12T03:41:45;15.20;;;9.57;;
51602;SDS011;37954;51.980;5.850;2023-02-12T03:46:12;17.77;;;11.53;;
51602;SDS011;37954;51.980;5.850;2023-02-12T03:50:48;16.53;;;10.70;;
51602;SDS011;37954;51.980;5.850;2023-02-12T03:55:14;17.50;;;10.73;;
51602;SDS011;37954;51.980;5.850;2023-02-12T03:59:26;19.23;;;11.20;;
51602;SDS011;37954;51.980;5.850;2023-02-12T04:03:39;16.80;;;11.47;;
51602;SDS011;37954;51.980;5.850;2023-02-12T04:07:52;18.23;;;10.70;;
51602;SDS011;37954;51.980;5.850;2023-02-12T04:16:46;15.70;;;11.10;;
51602;SDS011;37954;51.980;5.850;2023-02-12T04:30:03;14.37;;;10.53;;
51602;SDS011;37954;51.980;5.850;2023-02-12T04:38:45;16.27;;;10.83;;
51602;SDS011;37954;51.980;5.850;2023-02-12T04:43:03;17.60;;;11.07;;
51602;SDS011;37954;51.980;5.850;2023-02-12T04:47:15;16.00;;;10.93;;
51602;SDS011;37954;51.980;5.850;2023-02-12T04:51:27;19.23;;;11.60;;
51602;SDS011;37954;51.980;5.850;2023-02-12T04:55:39;18.80;;;11.47;;
51602;SDS011;37954;51.980;5.850;2023-02-12T04:59:50;18.03;;;10.93;;
51602;SDS011;37954;51.980;5.850;2023-02-12T05:04:02;17.73;;;11.23;;
51602;SDS011;37954;51.980;5.850;2023-02-12T05:08:15;16.97;;;11.03;;
51602;SDS011;37954;51.980;5.850;2023-02-12T05:12:26;16.97;;;11.53;;
51602;SDS011;37954;51.980;5.850;2023-02-12T05:16:38;17.37;;;10.70;;
51602;SDS011;37954;51.980;5.850;2023-02-12T05:21:00;18.13;;;11.00;;
51602;SDS011;37954;51.980;5.850;2023-02-12T05:25:14;18.93;;;11.50;;
51602;SDS011;37954;51.980;5.850;2023-02-12T05:29:25;16.10;;;11.30;;
51602;SDS011;37954;51.980;5.850;2023-02-12T05:33:37;21.63;;;11.53;;
51602;SDS011;37954;51.980;5.850;2023-02-12T05:37:49;16.23;;;11.00;;
51602;SDS011;37954;51.980;5.850;2023-02-12T05:42:00;17.20;;;11.40;;
51602;SDS011;37954;51.980;5.850;2023-02-12T05:46:12;17.33;;;11.30;;
51602;SDS011;37954;51.980;5.850;2023-02-12T05:50:24;15.97;;;10.60;;
51602;SDS011;37954;51.980;5.850;2023-02-12T05:54:43;16.27;;;10.77;;
51602;SDS011;37954;51.980;5.850;2023-02-12T05:58:55;15.97;;;10.43;;
51602;SDS011;37954;51.980;5.850;2023-02-12T06:03:09;21.07;;;12.80;;
51602;SDS011;37954;51.980;5.850;2023-02-12T06:07:21;14.57;;;10.77;;
51602;SDS011;37954;51.980;5.850;2023-02-12T06:11:33;22.40;;;12.17;;
51602;SDS011;37954;51.980;5.850;2023-02-12T06:15:45;16.17;;;10.63;;
51602;SDS011;37954;51.980;5.850;2023-02-12T06:19:57;18.13;;;10.63;;
51602;SDS011;37954;51.980;5.850;2023-02-12T06:24:12;16.00;;;10.57;;
51602;SDS011;37954;51.980;5.850;2023-02-12T06:28:24;18.10;;;11.13;;
51602;SDS011;37954;51.980;5.850;2023-02-12T06:32:36;17.90;;;12.13;;
51602;SDS011;37954;51.980;5.850;2023-02-12T06:36:48;17.47;;;10.67;;
51602;SDS011;37954;51.980;5.850;2023-02-12T06:41:00;18.97;;;11.97;;
51602;SDS011;37954;51.980;5.850;2023-02-12T06:45:12;16.03;;;10.73;;
51602;SDS011;37954;51.980;5.850;2023-02-12T06:49:24;16.70;;;11.43;;
51602;SDS011;37954;51.980;5.850;2023-02-12T06:53:36;14.20;;;10.23;;
51602;SDS011;37954;51.980;5.850;2023-02-12T06:57:48;15.40;;;10.50;;
51602;SDS011;37954;51.980;5.850;2023-02-12T07:01:59;17.10;;;10.93;;
51602;SDS011;37954;51.980;5.850;2023-02-12T07:06:11;19.93;;;12.30;;
51602;SDS011;37954;51.980;5.850;2023-02-12T07:10:23;19.47;;;11.63;;
51602;SDS011;37954;51.980;5.850;2023-02-12T07:14:34;20.43;;;13.67;;
51602;SDS011;37954;51.980;5.850;2023-02-12T07:18:46;20.20;;;13.70;;
51602;SDS011;37954;51.980;5.850;2023-02-12T07:22:58;19.90;;;13.50;;
51602;SDS011;37954;51.980;5.850;2023-02-12T07:27:10;22.03;;;13.87;;
51602;SDS011;37954;51.980;5.850;2023-02-12T07:31:22;26.43;;;13.30;;
51602;SDS011;37954;51.980;5.850;2023-02-12T07:35:34;19.07;;;12.43;;
51602;SDS011;37954;51.980;5.850;2023-02-12T07:39:45;18.23;;;12.97;;
51602;SDS011;37954;51.980;5.850;2023-02-12T07:43:58;19.33;;;11.77;;
51602;SDS011;37954;51.980;5.850;2023-02-12T07:48:13;21.33;;;13.20;;
51602;SDS011;37954;51.980;5.850;2023-02-12T07:52:25;17.40;;;12.03;;
51602;SDS011;37954;51.980;5.850;2023-02-12T07:56:37;20.17;;;12.53;;
51602;SDS011;37954;51.980;5.850;2023-02-12T08:00:50;18.53;;;12.37;;
51602;SDS011;37954;51.980;5.850;2023-02-12T08:05:03;19.87;;;12.23;;
51602;SDS011;37954;51.980;5.850;2023-02-12T08:09:15;19.93;;;13.83;;
51602;SDS011;37954;51.980;5.850;2023-02-12T08:13:38;17.53;;;12.83;;
51602;SDS011;37954;51.980;5.850;2023-02-12T08:17:50;20.00;;;12.23;;
51602;SDS011;37954;51.980;5.850;2023-02-12T08:22:02;15.97;;;11.73;;
51602;SDS011;37954;51.980;5.850;2023-02-12T08:26:15;18.97;;;12.07;;
51602;SDS011;37954;51.980;5.850;2023-02-12T08:30:29;17.93;;;11.93;;
51602;SDS011;37954;51.980;5.850;2023-02-12T08:34:40;18.83;;;13.37;;
51602;SDS011;37954;51.980;5.850;2023-02-12T08:38:52;18.27;;;13.40;;
51602;SDS011;37954;51.980;5.850;2023-02-12T08:43:04;18.03;;;12.90;;
51602;SDS011;37954;51.980;5.850;2023-02-12T08:47:15;18.87;;;12.87;;
51602;SDS011;37954;51.980;5.850;2023-02-12T08:51:34;21.97;;;13.33;;
51602;SDS011;37954;51.980;5.850;2023-02-12T08:55:49;20.63;;;13.17;;
51602;SDS011;37954;51.980;5.850;2023-02-12T09:00:01;20.00;;;12.97;;
51602;SDS011;37954;51.980;5.850;2023-02-12T09:04:13;18.30;;;13.23;;
51602;SDS011;37954;51.980;5.850;2023-02-12T09:08:28;20.37;;;13.60;;
51602;SDS011;37954;51.980;5.850;2023-02-12T09:12:40;22.57;;;13.57;;
51602;SDS011;37954;51.980;5.850;2023-02-12T09:16:52;23.17;;;16.03;;
51602;SDS011;37954;51.980;5.850;2023-02-12T09:21:06;21.60;;;12.90;;
51602;SDS011;37954;51.980;5.850;2023-02-12T09:25:20;21.33;;;13.80;;
51602;SDS011;37954;51.980;5.850;2023-02-12T09:29:31;19.20;;;12.90;;
51602;SDS011;37954;51.980;5.850;2023-02-12T09:33:43;19.40;;;12.43;;
51602;SDS011;37954;51.980;5.850;2023-02-12T09:37:55;18.73;;;13.50;;
51602;SDS011;37954;51.980;5.850;2023-02-12T09:42:28;22.40;;;15.53;;
51602;SDS011;37954;51.980;5.850;2023-02-12T09:47:04;23.50;;;13.87;;
51602;SDS011;37954;51.980;5.850;2023-02-12T09:51:26;22.47;;;15.20;;
51602;SDS011;37954;51.980;5.850;2023-02-12T09:55:39;17.87;;;13.50;;
51602;SDS011;37954;51.980;5.850;2023-02-12T09:59:53;21.27;;;13.90;;
51602;SDS011;37954;51.980;5.850;2023-02-12T10:04:19;23.73;;;13.90;;
51602;SDS011;37954;51.980;5.850;2023-02-12T10:26:34;24.30;;;14.20;;
51602;SDS011;37954;51.980;5.850;2023-02-12T10:30:59;20.23;;;14.83;;
51602;SDS011;37954;51.980;5.850;2023-02-12T10:35:14;25.33;;;15.63;;
51602;SDS011;37954;51.980;5.850;2023-02-12T10:39:28;24.77;;;15.37;;
51602;SDS011;37954;51.980;5.850;2023-02-12T10:43:46;24.33;;;14.00;;
51602;SDS011;37954;51.980;5.850;2023-02-12T10:48:03;25.07;;;15.57;;
51602;SDS011;37954;51.980;5.850;2023-02-12T10:56:43;24.97;;;15.67;;
51602;SDS011;37954;51.980;5.850;2023-02-12T11:00:55;25.33;;;15.85;;
51602;SDS011;37954;51.980;5.850;2023-02-12T11:05:21;21.23;;;13.50;;
51602;SDS011;37954;51.980;5.850;2023-02-12T11:09:36;19.30;;;12.68;;
51602;SDS011;37954;51.980;5.850;2023-02-12T11:14:02;18.90;;;12.57;;
51602;SDS011;37954;51.980;5.850;2023-02-12T11:18:20;19.03;;;12.90;;
51602;SDS011;37954;51.980;5.850;2023-02-12T11:22:33;20.13;;;12.00;;
51602;SDS011;37954;51.980;5.850;2023-02-12T11:26:45;19.23;;;12.18;;
51602;SDS011;37954;51.980;5.850;2023-02-12T11:35:30;17.45;;;11.07;;
51602;SDS011;37954;51.980;5.850;2023-02-12T11:39:47;15.45;;;9.70;;
51602;SDS011;37954;51.980;5.850;2023-02-12T11:48:37;17.92;;;10.63;;
51602;SDS011;37954;51.980;5.850;2023-02-12T11:52:50;14.95;;;10.38;;
51602;SDS011;37954;51.980;5.850;2023-02-12T11:57:06;18.63;;;11.27;;
51602;SDS011;37954;51.980;5.850;2023-02-12T12:01:23;17.42;;;10.98;;
51602;SDS011;37954;51.980;5.850;2023-02-12T12:05:43;18.73;;;12.00;;
51602;SDS011;37954;51.980;5.850;2023-02-12T12:10:00;13.43;;;9.43;;
51602;SDS011;37954;51.980;5.850;2023-02-12T12:14:30;16.05;;;9.20;;
51602;SDS011;37954;51.980;5.850;2023-02-12T12:19:08;13.45;;;9.20;;
51602;SDS011;37954;51.980;5.850;2023-02-12T12:23:54;18.33;;;9.55;;
51602;SDS011;37954;51.980;5.850;2023-02-12T12:33:04;17.25;;;10.20;;
51602;SDS011;37954;51.980;5.850;2023-02-12T13:09:21;17.85;;;11.38;;
51602;SDS011;37954;51.980;5.850;2023-02-12T13:13:48;16.25;;;11.20;;
51602;SDS011;37954;51.980;5.850;2023-02-12T13:18:08;14.48;;;9.63;;
51602;SDS011;37954;51.980;5.850;2023-02-12T13:22:36;12.95;;;8.75;;
51602;SDS011;37954;51.980;5.850;2023-02-12T13:26:57;14.30;;;9.10;;
51602;SDS011;37954;51.980;5.850;2023-02-12T13:31:13;13.55;;;8.77;;
51602;SDS011;37954;51.980;5.850;2023-02-12T13:35:44;14.10;;;9.10;;
51602;SDS011;37954;51.980;5.850;2023-02-12T13:39:58;13.18;;;8.55;;
51602;SDS011;37954;51.980;5.850;2023-02-12T13:44:22;15.05;;;9.38;;
51602;SDS011;37954;51.980;5.850;2023-02-12T13:53:49;13.50;;;9.05;;
51602;SDS011;37954;51.980;5.850;2023-02-12T13:57:41;16.17;;;8.95;;
51602;SDS011;37954;51.980;5.850;2023-02-12T14:01:53;12.98;;;9.50;;
51602;SDS011;37954;51.980;5.850;2023-02-12T14:06:09;15.40;;;9.30;;
51602;SDS011;37954;51.980;5.850;2023-02-12T14:10:30;16.77;;;9.20;;
51602;SDS011;37954;51.980;5.850;2023-02-12T14:14:52;12.43;;;8.82;;
51602;SDS011;37954;51.980;5.850;2023-02-12T14:28:52;13.82;;;8.45;;
51602;SDS011;37954;51.980;5.850;2023-02-12T14:37:17;15.20;;;9.85;;
51602;SDS011;37954;51.980;5.850;2023-02-12T14:41:51;16.00;;;10.55;;
51602;SDS011;37954;51.980;5.850;2023-02-12T14:50:36;18.55;;;11.68;;
51602;SDS011;37954;51.980;5.850;2023-02-12T14:54:52;15.88;;;10.63;;
51602;SDS011;37954;51.980;5.850;2023-02-12T14:59:09;17.33;;;10.25;;
51602;SDS011;37954;51.980;5.850;2023-02-12T15:03:37;18.17;;;11.82;;
51602;SDS011;37954;51.980;5.850;2023-02-12T15:08:07;15.90;;;9.75;;
51602;SDS011;37954;51.980;5.850;2023-02-12T15:12:33;16.58;;;10.52;;
51602;SDS011;37954;51.980;5.850;2023-02-12T15:17:19;15.57;;;10.45;;
51602;SDS011;37954;51.980;5.850;2023-02-12T15:21:35;13.85;;;9.45;;
51602;SDS011;37954;51.980;5.850;2023-02-12T15:25:48;15.27;;;9.73;;
51602;SDS011;37954;51.980;5.850;2023-02-12T15:30:01;13.55;;;8.90;;
51602;SDS011;37954;51.980;5.850;2023-02-12T15:34:15;15.13;;;9.35;;
51602;SDS011;37954;51.980;5.850;2023-02-12T15:38:35;15.60;;;9.50;;
51602;SDS011;37954;51.980;5.850;2023-02-12T15:42:56;15.10;;;9.93;;
51602;SDS011;37954;51.980;5.850;2023-02-12T15:47:13;16.60;;;9.43;;
51602;SDS011;37954;51.980;5.850;2023-02-12T15:51:28;17.05;;;9.85;;
51602;SDS011;37954;51.980;5.850;2023-02-12T15:55:45;15.73;;;9.65;;
51602;SDS011;37954;51.980;5.850;2023-02-12T16:00:02;17.98;;;11.20;;
51602;SDS011;37954;51.980;5.850;2023-02-12T16:04:23;17.70;;;10.48;;
51602;SDS011;37954;51.980;5.850;2023-02-12T16:08:37;14.20;;;9.43;;
51602;SDS011;37954;51.980;5.850;2023-02-12T16:12:57;15.88;;;9.68;;
51602;SDS011;37954;51.980;5.850;2023-02-12T16:21:36;16.67;;;9.63;;
51602;SDS011;37954;51.980;5.850;2023-02-12T16:25:52;15.77;;;10.52;;
51602;SDS011;37954;51.980;5.850;2023-02-12T16:30:07;19.75;;;11.07;;
51602;SDS011;37954;51.980;5.850;2023-02-12T16:34:40;18.55;;;11.48;;
51602;SDS011;37954;51.980;5.850;2023-02-12T16:43:23;20.13;;;11.60;;
51602;SDS011;37954;51.980;5.850;2023-02-12T16:47:36;32.65;;;19.33;;
51602;SDS011;37954;51.980;5.850;2023-02-12T16:51:49;27.05;;;15.55;;
51602;SDS011;37954;51.980;5.850;2023-02-12T16:56:02;25.52;;;14.15;;
51602;SDS011;37954;51.980;5.850;2023-02-12T17:00:15;17.50;;;11.73;;
51602;SDS011;37954;51.980;5.850;2023-02-12T17:04:28;21.50;;;12.63;;
51602;SDS011;37954;51.980;5.850;2023-02-12T17:08:40;19.73;;;11.27;;
51602;SDS011;37954;51.980;5.850;2023-02-12T17:12:51;26.70;;;17.15;;
51602;SDS011;37954;51.980;5.850;2023-02-12T17:17:03;42.03;;;22.83;;
51602;SDS011;37954;51.980;5.850;2023-02-12T17:25:32;34.37;;;20.30;;
51602;SDS011;37954;51.980;5.850;2023-02-12T17:29:46;33.50;;;19.13;;
51602;SDS011;37954;51.980;5.850;2023-02-12T17:33:58;30.43;;;16.20;;
51602;SDS011;37954;51.980;5.850;2023-02-12T17:38:09;25.77;;;15.43;;
51602;SDS011;37954;51.980;5.850;2023-02-12T17:42:21;28.92;;;16.52;;
51602;SDS011;37954;51.980;5.850;2023-02-12T17:46:33;27.40;;;16.07;;
51602;SDS011;37954;51.980;5.850;2023-02-12T17:50:45;28.00;;;13.90;;
51602;SDS011;37954;51.980;5.850;2023-02-12T17:55:04;28.13;;;15.13;;
51602;SDS011;37954;51.980;5.850;2023-02-12T17:59:17;31.47;;;15.33;;
51602;SDS011;37954;51.980;5.850;2023-02-12T18:03:29;27.50;;;17.40;;
51602;SDS011;37954;51.980;5.850;2023-02-12T18:07:41;21.50;;;13.47;;
51602;SDS011;37954;51.980;5.850;2023-02-12T18:11:52;20.97;;;11.73;;
51602;SDS011;37954;51.980;5.850;2023-02-12T18:16:05;18.00;;;10.85;;
51602;SDS011;37954;51.980;5.850;2023-02-12T18:20:20;19.67;;;11.53;;
51602;SDS011;37954;51.980;5.850;2023-02-12T18:24:32;20.80;;;12.27;;
51602;SDS011;37954;51.980;5.850;2023-02-12T18:28:45;18.40;;;11.37;;
51602;SDS011;37954;51.980;5.850;2023-02-12T18:32:57;21.37;;;11.03;;
51602;SDS011;37954;51.980;5.850;2023-02-12T18:37:09;21.97;;;12.77;;
51602;SDS011;37954;51.980;5.850;2023-02-12T18:41:23;24.97;;;14.23;;
51602;SDS011;37954;51.980;5.850;2023-02-12T18:45:37;19.97;;;13.40;;
51602;SDS011;37954;51.980;5.850;2023-02-12T18:49:51;21.73;;;13.32;;
51602;SDS011;37954;51.980;5.850;2023-02-12T18:54:04;22.97;;;14.33;;
51602;SDS011;37954;51.980;5.850;2023-02-12T18:58:17;22.10;;;14.10;;
51602;SDS011;37954;51.980;5.850;2023-02-12T19:02:29;23.83;;;14.83;;
51602;SDS011;37954;51.980;5.850;2023-02-12T19:06:45;31.57;;;18.83;;
51602;SDS011;37954;51.980;5.850;2023-02-12T19:10:58;28.40;;;17.37;;
51602;SDS011;37954;51.980;5.850;2023-02-12T19:15:10;22.95;;;13.23;;
51602;SDS011;37954;51.980;5.850;2023-02-12T19:19:22;20.30;;;13.13;;
51602;SDS011;37954;51.980;5.850;2023-02-12T19:23:34;23.47;;;14.17;;
51602;SDS011;37954;51.980;5.850;2023-02-12T19:27:46;21.03;;;12.90;;
51602;SDS011;37954;51.980;5.850;2023-02-12T19:31:57;27.63;;;16.33;;
51602;SDS011;37954;51.980;5.850;2023-02-12T19:36:10;21.17;;;12.87;;
51602;SDS011;37954;51.980;5.850;2023-02-12T19:40:23;16.13;;;9.70;;
51602;SDS011;37954;51.980;5.850;2023-02-12T19:44:35;14.30;;;9.20;;
51602;SDS011;37954;51.980;5.850;2023-02-12T19:48:46;15.93;;;9.23;;
51602;SDS011;37954;51.980;5.850;2023-02-12T19:52:58;15.07;;;9.30;;
51602;SDS011;37954;51.980;5.850;2023-02-12T19:57:10;21.60;;;11.07;;
51602;SDS011;37954;51.980;5.850;2023-02-12T20:01:24;18.47;;;10.73;;
51602;SDS011;37954;51.980;5.850;2023-02-12T20:05:36;16.53;;;9.57;;
51602;SDS011;37954;51.980;5.850;2023-02-12T20:09:54;14.53;;;8.97;;
51602;SDS011;37954;51.980;5.850;2023-02-12T20:14:07;14.30;;;9.43;;
51602;SDS011;37954;51.980;5.850;2023-02-12T20:18:21;13.13;;;8.43;;
51602;SDS011;37954;51.980;5.850;2023-02-12T20:22:33;16.63;;;9.30;;
51602;SDS011;37954;51.980;5.850;2023-02-12T20:26:46;16.63;;;9.80;;
51602;SDS011;37954;51.980;5.850;2023-02-12T20:30:58;16.17;;;10.13;;
51602;SDS011;37954;51.980;5.850;2023-02-12T20:35:14;16.50;;;10.00;;
51602;SDS011;37954;51.980;5.850;2023-02-12T20:39:26;16.50;;;9.57;;
51602;SDS011;37954;51.980;5.850;2023-02-12T20:43:37;17.60;;;9.97;;
51602;SDS011;37954;51.980;5.850;2023-02-12T20:47:49;18.13;;;9.90;;
51602;SDS011;37954;51.980;5.850;2023-02-12T20:52:01;41.40;;;19.23;;
51602;SDS011;37954;51.980;5.850;2023-02-12T20:56:14;33.87;;;15.13;;
51602;SDS011;37954;51.980;5.850;2023-02-12T21:00:30;23.90;;;15.13;;
51602;SDS011;37954;51.980;5.850;2023-02-12T21:04:42;18.93;;;11.53;;
51602;SDS011;37954;51.980;5.850;2023-02-12T21:08:54;19.77;;;10.63;;
51602;SDS011;37954;51.980;5.850;2023-02-12T21:13:06;19.50;;;11.13;;
51602;SDS011;37954;51.980;5.850;2023-02-12T21:17:17;22.60;;;12.17;;
51602;SDS011;37954;51.980;5.850;2023-02-12T21:21:31;21.33;;;12.30;;
51602;SDS011;37954;51.980;5.850;2023-02-12T21:25:44;17.13;;;10.03;;
51602;SDS011;37954;51.980;5.850;2023-02-12T21:29:56;19.30;;;10.57;;
51602;SDS011;37954;51.980;5.850;2023-02-12T21:34:09;18.40;;;10.17;;
51602;SDS011;37954;51.980;5.850;2023-02-12T21:38:26;19.67;;;10.93;;
51602;SDS011;37954;51.980;5.850;2023-02-12T21:42:37;21.90;;;11.70;;
51602;SDS011;37954;51.980;5.850;2023-02-12T21:46:49;17.60;;;10.10;;
51602;SDS011;37954;51.980;5.850;2023-02-12T21:51:01;22.93;;;11.50;;
51602;SDS011;37954;51.980;5.850;2023-02-12T21:55:13;20.03;;;10.60;;
51602;SDS011;37954;51.980;5.850;2023-02-12T21:59:25;18.97;;;9.77;;
51602;SDS011;37954;51.980;5.850;2023-02-12T22:03:37;18.80;;;10.17;;
51602;SDS011;37954;51.980;5.850;2023-02-12T22:08:05;20.23;;;10.53;;
51602;SDS011;37954;51.980;5.850;2023-02-12T22:12:16;20.33;;;10.00;;
51602;SDS011;37954;51.980;5.850;2023-02-12T22:16:29;15.97;;;9.60;;
51602;SDS011;37954;51.980;5.850;2023-02-12T22:20:41;18.30;;;9.57;;
51602;SDS011;37954;51.980;5.850;2023-02-12T22:24:53;18.30;;;10.37;;
51602;SDS011;37954;51.980;5.850;2023-02-12T22:29:06;18.90;;;10.63;;
51602;SDS011;37954;51.980;5.850;2023-02-12T22:33:19;17.17;;;9.33;;
51602;SDS011;37954;51.980;5.850;2023-02-12T22:37:31;16.57;;;9.23;;
51602;SDS011;37954;51.980;5.850;2023-02-12T22:41:43;16.47;;;9.43;;
51602;SDS011;37954;51.980;5.850;2023-02-12T22:45:55;18.23;;;9.33;;
51602;SDS011;37954;51.980;5.850;2023-02-12T22:50:07;18.67;;;10.50;;
51602;SDS011;37954;51.980;5.850;2023-02-12T22:54:19;19.37;;;9.53;;
51602;SDS011;37954;51.980;5.850;2023-02-12T22:58:31;18.53;;;9.90;;
51602;SDS011;37954;51.980;5.850;2023-02-12T23:02:44;19.87;;;10.30;;
51602;SDS011;37954;51.980;5.850;2023-02-12T23:06:55;20.30;;;10.27;;
51602;SDS011;37954;51.980;5.850;2023-02-12T23:11:07;18.77;;;10.47;;
51602;SDS011;37954;51.980;5.850;2023-02-12T23:15:19;15.90;;;9.27;;
51602;SDS011;37954;51.980;5.850;2023-02-12T23:19:30;17.10;;;10.43;;
51602;SDS011;37954;51.980;5.850;2023-02-12T23:23:42;15.97;;;10.03;;
51602;SDS011;37954;51.980;5.850;2023-02-12T23:27:53;16.03;;;9.93;;
51602;SDS011;37954;51.980;5.850;2023-02-12T23:32:05;14.63;;;9.33;;
51602;SDS011;37954;51.980;5.850;2023-02-12T23:36:17;16.50;;;10.30;;
51602;SDS011;37954;51.980;5.850;2023-02-12T23:40:29;18.03;;;9.90;;
51602;SDS011;37954;51.980;5.850;2023-02-12T23:44:41;18.13;;;9.27;;
51602;SDS011;37954;51.980;5.850;2023-02-12T23:48:53;15.63;;;8.93;;
51602;SDS011;37954;51.980;5.850;2023-02-12T23:53:04;13.57;;;8.30;;
51602;SDS011;37954;51.980;5.850;2023-02-12T23:57:16;15.20;;;8.50;;
